createdAt,value
2019-01-30T00:02:18.973Z,5.50
2019-01-30T00:04:47.042Z,5.50
2019-01-30T00:07:15.265Z,5.50
2019-01-30T00:09:43.445Z,5.50
2019-01-30T00:12:11.676Z,5.60
2019-01-30T00:14:39.758Z,5.60
2019-01-30T00:17:07.986Z,5.60
2019-01-30T00:19:36.064Z,5.60
2019-01-30T00:22:04.889Z,5.50
2019-01-30T00:24:32.971Z,5.50
2019-01-30T00:27:01.198Z,5.50
2019-01-30T00:29:29.265Z,5.40
2019-01-30T00:31:57.455Z,5.30
2019-01-30T00:34:25.721Z,5.30
2019-01-30T00:36:53.900Z,5.30
2019-01-30T00:39:22.073Z,5.20
2019-01-30T00:41:50.196Z,5.20
2019-01-30T00:44:18.269Z,5.10
2019-01-30T00:46:46.501Z,5.20
2019-01-30T00:49:14.633Z,5.20
2019-01-30T00:51:42.765Z,5.10
2019-01-30T00:54:11.290Z,5.00
2019-01-30T00:56:39.423Z,5.00
2019-01-30T00:59:07.502Z,5.00
2019-01-30T01:01:35.821Z,4.90
2019-01-30T01:04:04.496Z,4.90
2019-01-30T01:06:32.658Z,4.90
2019-01-30T01:09:00.836Z,4.90
2019-01-30T01:11:28.952Z,4.80
2019-01-30T01:13:57.358Z,4.70
2019-01-30T01:16:25.657Z,4.80
2019-01-30T01:18:53.757Z,4.60
2019-01-30T01:21:22.233Z,4.70
2019-01-30T01:23:50.432Z,4.60
2019-01-30T01:26:18.561Z,4.60
2019-01-30T01:28:46.739Z,4.60
2019-01-30T01:31:14.872Z,4.50
2019-01-30T01:33:42.945Z,4.50
2019-01-30T01:36:11.123Z,4.40
2019-01-30T01:38:39.696Z,4.20
2019-01-30T01:41:08.365Z,4.20
2019-01-30T01:43:36.441Z,4.00
2019-01-30T01:46:04.819Z,4.00
2019-01-30T01:48:32.953Z,3.80
2019-01-30T01:51:01.481Z,3.60
2019-01-30T01:53:29.612Z,3.70
2019-01-30T01:55:57.797Z,3.60
2019-01-30T01:58:25.927Z,3.50
2019-01-30T02:00:54.310Z,3.50
2019-01-30T02:03:23.016Z,3.40
2019-01-30T02:05:51.093Z,3.50
2019-01-30T02:08:19.765Z,3.60
2019-01-30T02:10:47.948Z,3.50
2019-01-30T02:13:16.186Z,3.50
2019-01-30T02:15:44.260Z,3.60
2019-01-30T02:18:12.378Z,3.50
2019-01-30T02:20:40.545Z,3.40
2019-01-30T02:23:08.870Z,3.40
2019-01-30T02:25:37.046Z,3.40
2019-01-30T02:28:05.281Z,3.40
2019-01-30T02:30:33.654Z,3.30
2019-01-30T02:33:01.989Z,3.50
2019-01-30T02:35:30.211Z,3.70
2019-01-30T02:37:58.491Z,3.90
2019-01-30T02:40:26.740Z,4.00
2019-01-30T02:42:54.956Z,4.20
2019-01-30T02:45:24.617Z,4.30
2019-01-30T02:47:52.832Z,4.40
2019-01-30T02:50:21.107Z,4.40
2019-01-30T02:52:49.447Z,4.60
2019-01-30T02:55:17.802Z,4.60
2019-01-30T02:57:46.571Z,4.70
2019-01-30T03:00:35.158Z,4.70
2019-01-30T03:03:03.693Z,4.70
2019-01-30T03:05:32.047Z,4.70
2019-01-30T03:08:00.695Z,4.70
2019-01-30T03:10:28.861Z,4.80
2019-01-30T03:12:56.986Z,4.80
2019-01-30T03:15:25.263Z,4.80
2019-01-30T03:18:57.936Z,4.80
2019-01-30T03:21:26.020Z,4.90
2019-01-30T03:23:54.140Z,4.90
2019-01-30T03:26:22.212Z,4.90
2019-01-30T03:28:50.333Z,4.90
2019-01-30T03:31:19.563Z,5.00
2019-01-30T03:33:48.335Z,5.00
2019-01-30T03:36:16.480Z,4.90
2019-01-30T03:38:44.667Z,4.90
2019-01-30T03:41:12.840Z,4.90
2019-01-30T03:43:40.969Z,4.80
2019-01-30T03:46:09.037Z,4.80
2019-01-30T03:48:37.177Z,4.70
2019-01-30T03:51:05.548Z,4.70
2019-01-30T03:53:33.775Z,4.70
2019-01-30T03:56:01.852Z,4.60
2019-01-30T03:58:29.970Z,4.60
2019-01-30T04:00:58.064Z,4.60
2019-01-30T04:03:26.172Z,4.60
2019-01-30T04:05:54.242Z,4.50
2019-01-30T04:08:22.493Z,4.50
2019-01-30T04:10:50.680Z,4.40
2019-01-30T04:13:18.756Z,4.30
2019-01-30T04:15:47.269Z,4.30
2019-01-30T04:18:15.343Z,4.20
2019-01-30T04:20:43.569Z,4.10
2019-01-30T04:23:11.673Z,4.10
2019-01-30T04:25:39.808Z,4.00
2019-01-30T04:28:08.451Z,3.90
2019-01-30T04:30:36.572Z,3.90
2019-01-30T04:33:04.746Z,4.00
2019-01-30T04:35:33.087Z,4.00
2019-01-30T04:38:01.214Z,4.00
2019-01-30T04:40:29.355Z,4.00
2019-01-30T04:42:57.453Z,4.10
2019-01-30T04:45:25.684Z,4.10
2019-01-30T04:47:53.845Z,4.10
2019-01-30T04:50:21.978Z,4.10
2019-01-30T04:52:50.750Z,4.10
2019-01-30T04:55:19.063Z,4.20
2019-01-30T04:57:47.242Z,4.20
2019-01-30T05:00:18.139Z,4.20
2019-01-30T05:02:46.333Z,4.20
2019-01-30T05:05:14.670Z,4.30
2019-01-30T05:07:43.209Z,4.30
2019-01-30T05:10:12.581Z,4.30
2019-01-30T05:12:40.929Z,4.20
2019-01-30T05:15:16.693Z,4.20
2019-01-30T05:17:44.873Z,4.10
2019-01-30T05:20:14.495Z,4.10
2019-01-30T05:22:42.819Z,4.20
2019-01-30T05:25:11.172Z,4.10
2019-01-30T05:27:39.445Z,4.10
2019-01-30T05:30:12.544Z,4.10
2019-01-30T05:32:40.829Z,4.00
2019-01-30T05:35:09.185Z,3.90
2019-01-30T05:37:37.540Z,3.90
2019-01-30T05:40:07.976Z,3.90
2019-01-30T05:42:36.447Z,4.00
2019-01-30T05:45:06.166Z,4.00
2019-01-30T05:47:34.221Z,3.90
2019-01-30T05:50:02.413Z,3.90
2019-01-30T05:52:30.537Z,3.90
2019-01-30T05:54:58.633Z,3.70
2019-01-30T05:57:26.853Z,3.80
2019-01-30T05:59:54.911Z,3.70
2019-01-30T06:02:23.034Z,3.60
2019-01-30T06:04:51.099Z,3.70
2019-01-30T06:07:19.568Z,3.60
2019-01-30T06:09:47.647Z,3.60
2019-01-30T06:12:15.771Z,3.60
2019-01-30T06:14:43.837Z,3.60
2019-01-30T06:17:11.984Z,3.60
2019-01-30T06:19:40.165Z,3.60
2019-01-30T06:22:08.482Z,3.40
2019-01-30T06:24:36.661Z,3.40
2019-01-30T06:27:04.969Z,3.30
2019-01-30T06:29:33.415Z,3.30
2019-01-30T06:32:01.740Z,3.40
2019-01-30T06:34:29.803Z,3.40
2019-01-30T06:36:57.981Z,3.40
2019-01-30T06:39:26.484Z,3.40
2019-01-30T06:41:54.620Z,3.40
2019-01-30T06:44:22.696Z,3.40
2019-01-30T06:46:51.017Z,3.40
2019-01-30T06:49:19.080Z,3.30
2019-01-30T06:51:47.675Z,3.30
2019-01-30T06:54:15.744Z,3.30
2019-01-30T06:56:43.822Z,3.30
2019-01-30T06:59:12.049Z,3.30
2019-01-30T07:01:40.228Z,3.20
2019-01-30T07:04:08.370Z,3.20
2019-01-30T07:06:36.444Z,3.20
2019-01-30T07:09:09.292Z,3.20
2019-01-30T07:11:37.653Z,3.20
2019-01-30T07:14:06.377Z,3.20
2019-01-30T07:16:34.459Z,3.10
2019-01-30T07:19:02.593Z,3.20
2019-01-30T07:21:30.681Z,3.10
2019-01-30T07:23:58.805Z,3.10
2019-01-30T07:26:26.869Z,3.10
2019-01-30T07:28:55.021Z,3.10
2019-01-30T07:31:23.297Z,3.10
2019-01-30T07:33:51.961Z,3.20
2019-01-30T07:36:20.284Z,3.20
2019-01-30T07:38:48.462Z,3.40
2019-01-30T07:41:16.553Z,3.40
2019-01-30T07:43:44.684Z,3.60
2019-01-30T07:46:12.773Z,3.80
2019-01-30T07:48:40.908Z,3.90
2019-01-30T07:51:08.981Z,4.00
2019-01-30T07:53:37.196Z,4.00
2019-01-30T07:56:05.469Z,4.10
2019-01-30T07:58:33.584Z,4.20
2019-01-30T08:01:01.757Z,4.10
2019-01-30T08:03:29.890Z,4.20
2019-01-30T08:05:58.125Z,4.30
2019-01-30T08:08:26.256Z,4.50
2019-01-30T08:10:54.436Z,4.60
2019-01-30T08:13:22.504Z,4.70
2019-01-30T08:15:50.729Z,4.80
2019-01-30T08:18:19.340Z,5.00
2019-01-30T08:20:47.473Z,5.10
2019-01-30T08:23:15.697Z,5.20
2019-01-30T08:25:43.820Z,5.30
2019-01-30T08:28:12.609Z,5.50
2019-01-30T08:30:40.894Z,5.80
2019-01-30T08:33:09.445Z,6.10
2019-01-30T08:35:37.705Z,6.30
2019-01-30T08:38:06.020Z,6.50
2019-01-30T08:40:34.281Z,6.80
2019-01-30T08:43:02.497Z,6.90
2019-01-30T08:45:31.581Z,7.20
2019-01-30T08:47:59.836Z,7.30
2019-01-30T08:50:28.308Z,7.40
2019-01-30T08:52:56.982Z,7.50
2019-01-30T08:55:25.222Z,7.60
2019-01-30T08:57:53.994Z,7.50
2019-01-30T09:00:23.284Z,7.60
2019-01-30T09:02:51.849Z,7.70
2019-01-30T09:05:20.646Z,7.80
2019-01-30T09:07:48.858Z,7.70
2019-01-30T09:10:19.209Z,7.70
2019-01-30T09:12:47.612Z,7.70
2019-01-30T09:15:17.503Z,7.80
2019-01-30T09:17:46.390Z,7.80
2019-01-30T09:20:17.039Z,7.80
2019-01-30T09:22:45.254Z,8.00
2019-01-30T09:25:15.833Z,8.00
2019-01-30T09:27:44.030Z,8.00
2019-01-30T09:30:18.794Z,8.00
2019-01-30T09:32:46.338Z,8.10
2019-01-30T09:35:14.807Z,8.10
2019-01-30T09:37:43.197Z,8.30
2019-01-30T09:40:12.190Z,8.40
2019-01-30T09:42:40.327Z,8.50
2019-01-30T09:45:10.083Z,8.60
2019-01-30T09:47:38.242Z,8.60
2019-01-30T09:50:08.428Z,8.60
2019-01-30T09:52:36.518Z,8.70
2019-01-30T09:55:06.231Z,8.70
2019-01-30T09:57:34.377Z,8.60
2019-01-30T10:00:02.730Z,8.70
2019-01-30T10:02:30.886Z,8.70
2019-01-30T19:35:28.584Z,5.50
2019-01-30T19:37:57.013Z,5.40
2019-01-30T19:40:25.300Z,5.40
2019-01-30T19:42:53.645Z,5.30
2019-01-30T19:45:23.450Z,5.20
2019-01-30T19:47:51.674Z,5.30
2019-01-30T19:50:22.153Z,5.30
2019-01-30T19:52:50.780Z,5.20
2019-01-30T19:55:19.070Z,5.10
2019-01-30T19:57:47.261Z,5.10
2019-01-30T20:00:20.993Z,5.10
2019-01-30T20:02:49.393Z,5.10
2019-01-30T20:05:17.778Z,5.10
2019-01-30T20:07:46.124Z,4.90
2019-01-30T20:10:18.300Z,4.80
2019-01-30T20:12:46.638Z,4.80
2019-01-30T20:15:15.041Z,4.70
2019-01-30T20:17:43.721Z,4.70
2019-01-30T20:20:12.841Z,4.70
2019-01-30T20:22:41.086Z,4.80
2019-01-30T20:25:12.877Z,4.80
2019-01-30T20:27:41.012Z,4.70
2019-01-30T20:30:11.873Z,4.70
2019-01-30T20:32:40.023Z,4.80
2019-01-30T20:35:08.682Z,4.70
2019-01-30T20:37:37.678Z,4.70
2019-01-30T20:40:09.490Z,4.70
2019-01-30T20:42:37.629Z,4.60
2019-01-30T20:45:07.823Z,4.60
2019-01-30T20:47:36.554Z,4.60
2019-01-30T20:50:07.110Z,4.50
2019-01-30T20:52:35.292Z,4.50
2019-01-30T20:55:04.697Z,4.50
2019-01-30T20:57:32.989Z,4.60
2019-01-30T21:00:01.070Z,4.60
2019-01-30T21:02:29.309Z,4.60
2019-01-30T21:04:57.734Z,4.70
2019-01-30T21:07:36.877Z,4.80
2019-01-30T21:09:55.746Z,4.90
2019-01-30T21:12:23.920Z,4.90
2019-01-30T21:14:52.141Z,4.80
2019-01-30T21:17:20.236Z,4.90
2019-01-30T21:19:48.358Z,4.90
2019-01-30T21:22:16.544Z,5.00
2019-01-30T21:24:44.665Z,5.10
2019-01-30T21:27:12.734Z,5.20
2019-01-30T21:29:41.225Z,5.30
2019-01-30T21:32:09.310Z,5.20
2019-01-30T21:34:37.545Z,5.40
2019-01-30T21:37:05.697Z,5.50
2019-01-30T21:39:33.816Z,5.50
2019-01-30T21:42:01.897Z,5.60
2019-01-30T21:44:30.041Z,5.70
2019-01-30T21:47:01.330Z,5.70
2019-01-30T21:49:29.015Z,5.70
2019-01-30T21:51:57.283Z,5.70
2019-01-30T21:54:25.424Z,5.70
2019-01-30T21:56:53.504Z,5.70
2019-01-30T21:59:21.582Z,5.70
2019-01-30T22:01:49.897Z,5.70
2019-01-30T22:04:18.313Z,5.80
2019-01-30T22:06:46.401Z,5.70
2019-01-30T22:09:14.566Z,5.70
2019-01-30T22:11:42.612Z,5.80
2019-01-30T22:14:10.699Z,5.80
2019-01-30T22:16:38.922Z,5.70
2019-01-30T22:19:07.114Z,5.70
2019-01-30T22:21:35.332Z,5.70
2019-01-30T22:24:05.593Z,5.70
2019-01-30T22:26:34.144Z,5.60
2019-01-30T22:29:04.023Z,5.60
2019-01-30T22:31:32.301Z,5.50
2019-01-30T22:34:00.388Z,5.40
2019-01-30T22:36:28.571Z,5.30
2019-01-30T22:38:57.369Z,5.20
2019-01-30T22:41:25.642Z,5.20
2019-01-30T22:43:53.716Z,5.20
2019-01-30T22:46:21.936Z,5.20
2019-01-30T22:48:50.009Z,5.20
2019-01-30T22:51:18.096Z,5.10
2019-01-30T22:53:46.342Z,5.10
2019-01-30T22:56:14.429Z,5.10
2019-01-30T22:58:42.565Z,5.10
2019-01-30T23:01:44.145Z,5.10
2019-01-30T23:04:48.605Z,5.20
2019-01-30T23:07:38.864Z,5.10
2019-01-30T23:10:47.077Z,5.30
2019-01-30T23:13:57.175Z,5.30
2019-01-30T23:17:05.806Z,5.20
2019-01-30T23:19:44.417Z,5.30
2019-01-30T23:22:50.572Z,5.30
2019-01-30T23:25:45.370Z,5.30
2019-01-30T23:28:38.812Z,5.30
2019-01-30T23:31:33.228Z,5.40
2019-01-30T23:34:39.466Z,5.40
2019-01-30T23:37:58.588Z,5.30
2019-01-30T23:40:43.849Z,5.20
2019-01-30T23:43:53.433Z,5.20
2019-01-30T23:46:37.803Z,5.20
2019-01-30T23:50:08.496Z,5.20
2019-01-30T23:53:17.094Z,5.10
2019-01-30T23:56:11.739Z,5.00
2019-01-30T23:58:53.999Z,4.90
